sensor_id;sensor_type;location;lat;lon;timestamp;temperature;humidity
43862;DHT22;29510;52.140;5.034;2023-05-07T00:06:17;14.70;99.90
43862;DHT22;29510;52.140;5.034;2023-05-07T00:16:19;14.60;99.90
43862;DHT22;29510;52.140;5.034;2023-05-07T00:26:20;14.60;99.90
43862;DHT22;29510;52.140;5.034;2023-05-07T00:36:21;14.60;99.90
43862;DHT22;29510;52.140;5.034;2023-05-07T00:46:23;14.60;99.90
43862;DHT22;29510;52.140;5.034;2023-05-07T00:56:24;14.60;99.90
43862;DHT22;29510;52.140;5.034;2023-05-07T01:06:26;14.60;99.90
43862;DHT22;29510;52.140;5.034;2023-05-07T01:16:28;14.60;99.90
43862;DHT22;29510;52.140;5.034;2023-05-07T01:26:30;14.40;99.90
43862;DHT22;29510;52.140;5.034;2023-05-07T01:36:32;14.40;99.90
43862;DHT22;29510;52.140;5.034;2023-05-07T01:46:33;14.30;99.90
43862;DHT22;29510;52.140;5.034;2023-05-07T01:56:34;14.20;99.90
43862;DHT22;29510;52.140;5.034;2023-05-07T02:06:36;14.10;99.90
43862;DHT22;29510;52.140;5.034;2023-05-07T02:16:37;13.90;99.90
43862;DHT22;29510;52.140;5.034;2023-05-07T02:26:39;13.90;99.90
43862;DHT22;29510;52.140;5.034;2023-05-07T02:36:40;13.90;99.90
43862;DHT22;29510;52.140;5.034;2023-05-07T02:46:45;13.80;99.90
43862;DHT22;29510;52.140;5.034;2023-05-07T02:56:46;13.90;99.90
43862;DHT22;29510;52.140;5.034;2023-05-07T03:06:48;13.90;99.90
43862;DHT22;29510;52.140;5.034;2023-05-07T03:16:49;14.00;99.90
43862;DHT22;29510;52.140;5.034;2023-05-07T03:26:51;14.00;99.90
43862;DHT22;29510;52.140;5.034;2023-05-07T03:36:52;14.00;99.90
43862;DHT22;29510;52.140;5.034;2023-05-07T03:46:53;14.00;99.90
43862;DHT22;29510;52.140;5.034;2023-05-07T03:56:54;14.00;99.90
43862;DHT22;29510;52.140;5.034;2023-05-07T04:06:55;14.00;99.90
43862;DHT22;29510;52.140;5.034;2023-05-07T04:16:56;14.00;99.90
43862;DHT22;29510;52.140;5.034;2023-05-07T04:26:57;14.00;99.90
43862;DHT22;29510;52.140;5.034;2023-05-07T04:36:59;14.10;99.90
43862;DHT22;29510;52.140;5.034;2023-05-07T04:47:01;14.10;99.90
43862;DHT22;29510;52.140;5.034;2023-05-07T04:57:05;14.00;99.90
43862;DHT22;29510;52.140;5.034;2023-05-07T05:07:07;14.00;99.90
43862;DHT22;29510;52.140;5.034;2023-05-07T05:17:08;14.10;99.90
43862;DHT22;29510;52.140;5.034;2023-05-07T05:27:09;14.10;99.90
43862;DHT22;29510;52.140;5.034;2023-05-07T05:37:10;14.20;99.90
43862;DHT22;29510;52.140;5.034;2023-05-07T05:47:12;14.20;99.90
43862;DHT22;29510;52.140;5.034;2023-05-07T05:57:13;14.30;99.90
43862;DHT22;29510;52.140;5.034;2023-05-07T06:07:15;14.30;99.90
43862;DHT22;29510;52.140;5.034;2023-05-07T06:17:16;14.30;99.90
43862;DHT22;29510;52.140;5.034;2023-05-07T06:27:17;14.20;99.90
43862;DHT22;29510;52.140;5.034;2023-05-07T06:37:18;14.20;99.90
43862;DHT22;29510;52.140;5.034;2023-05-07T06:47:19;14.30;99.90
43862;DHT22;29510;52.140;5.034;2023-05-07T06:57:20;14.30;99.90
43862;DHT22;29510;52.140;5.034;2023-05-07T07:07:21;14.30;99.90
43862;DHT22;29510;52.140;5.034;2023-05-07T07:17:22;14.40;99.90
43862;DHT22;29510;52.140;5.034;2023-05-07T07:27:23;14.50;99.90
43862;DHT22;29510;52.140;5.034;2023-05-07T07:37:24;14.60;99.90
43862;DHT22;29510;52.140;5.034;2023-05-07T07:47:26;14.60;99.90
43862;DHT22;29510;52.140;5.034;2023-05-07T07:57:27;14.80;99.90
43862;DHT22;29510;52.140;5.034;2023-05-07T08:07:28;14.90;99.90
43862;DHT22;29510;52.140;5.034;2023-05-07T08:17:29;15.20;99.90
43862;DHT22;29510;52.140;5.034;2023-05-07T08:27:30;15.40;99.90
43862;DHT22;29510;52.140;5.034;2023-05-07T08:37:31;15.70;99.90
43862;DHT22;29510;52.140;5.034;2023-05-07T08:47:58;16.20;99.90
43862;DHT22;29510;52.140;5.034;2023-05-07T08:58:00;16.60;99.90
43862;DHT22;29510;52.140;5.034;2023-05-07T09:08:02;17.10;99.90
43862;DHT22;29510;52.140;5.034;2023-05-07T09:18:03;17.50;80.20
43862;DHT22;29510;52.140;5.034;2023-05-07T09:28:05;18.00;35.80
43862;DHT22;29510;52.140;5.034;2023-05-07T09:38:08;18.00;18.00
43862;DHT22;29510;52.140;5.034;2023-05-07T09:48:09;18.20;11.80
43862;DHT22;29510;52.140;5.034;2023-05-07T09:58:12;18.70;9.20
43862;DHT22;29510;52.140;5.034;2023-05-07T10:08:14;18.80;1.00
43862;DHT22;29510;52.140;5.034;2023-05-07T10:18:20;19.10;1.00
43862;DHT22;29510;52.140;5.034;2023-05-07T10:28:25;19.30;1.00
43862;DHT22;29510;52.140;5.034;2023-05-07T10:38:27;19.30;1.00
43862;DHT22;29510;52.140;5.034;2023-05-07T10:48:29;19.80;1.00
43862;DHT22;29510;52.140;5.034;2023-05-07T10:58:31;19.90;1.00
43862;DHT22;29510;52.140;5.034;2023-05-07T11:09:06;20.50;1.00
43862;DHT22;29510;52.140;5.034;2023-05-07T11:19:07;20.30;1.00
43862;DHT22;29510;52.140;5.034;2023-05-07T11:29:16;20.60;1.00
43862;DHT22;29510;52.140;5.034;2023-05-07T11:39:25;20.70;1.00
43862;DHT22;29510;52.140;5.034;2023-05-07T11:49:26;21.20;1.00
43862;DHT22;29510;52.140;5.034;2023-05-07T11:59:27;21.00;1.00
43862;DHT22;29510;52.140;5.034;2023-05-07T12:09:28;21.40;1.00
43862;DHT22;29510;52.140;5.034;2023-05-07T12:19:30;21.90;1.00
43862;DHT22;29510;52.140;5.034;2023-05-07T12:29:31;21.70;1.00
43862;DHT22;29510;52.140;5.034;2023-05-07T12:39:32;21.60;1.00
43862;DHT22;29510;52.140;5.034;2023-05-07T12:49:35;21.60;1.00
43862;DHT22;29510;52.140;5.034;2023-05-07T12:59:40;21.30;1.00
43862;DHT22;29510;52.140;5.034;2023-05-07T13:09:42;21.10;1.00
43862;DHT22;29510;52.140;5.034;2023-05-07T13:19:43;20.70;1.00
43862;DHT22;29510;52.140;5.034;2023-05-07T13:29:44;20.60;1.00
43862;DHT22;29510;52.140;5.034;2023-05-07T13:39:45;21.00;1.00
43862;DHT22;29510;52.140;5.034;2023-05-07T13:49:46;20.90;1.00
43862;DHT22;29510;52.140;5.034;2023-05-07T13:59:50;20.40;1.00
43862;DHT22;29510;52.140;5.034;2023-05-07T14:09:51;20.00;1.00
43862;DHT22;29510;52.140;5.034;2023-05-07T14:19:53;19.80;1.00
43862;DHT22;29510;52.140;5.034;2023-05-07T14:29:55;19.90;1.00
43862;DHT22;29510;52.140;5.034;2023-05-07T14:39:56;19.70;1.00
43862;DHT22;29510;52.140;5.034;2023-05-07T14:49:57;19.00;1.00
43862;DHT22;29510;52.140;5.034;2023-05-07T14:59:59;18.10;1.00
43862;DHT22;29510;52.140;5.034;2023-05-07T15:10:00;17.30;1.00
43862;DHT22;29510;52.140;5.034;2023-05-07T15:20:01;16.90;1.00
43862;DHT22;29510;52.140;5.034;2023-05-07T15:30:02;16.60;7.70
43862;DHT22;29510;52.140;5.034;2023-05-07T15:40:04;16.00;45.50
43862;DHT22;29510;52.140;5.034;2023-05-07T15:50:07;15.90;99.90
43862;DHT22;29510;52.140;5.034;2023-05-07T16:00:09;16.20;99.90
43862;DHT22;29510;52.140;5.034;2023-05-07T16:10:12;16.10;99.90
43862;DHT22;29510;52.140;5.034;2023-05-07T16:20:13;16.20;99.90
43862;DHT22;29510;52.140;5.034;2023-05-07T16:30:15;16.30;99.90
43862;DHT22;29510;52.140;5.034;2023-05-07T16:40:20;16.40;99.90
43862;DHT22;29510;52.140;5.034;2023-05-07T16:50:21;16.60;99.90
43862;DHT22;29510;52.140;5.034;2023-05-07T17:00:23;16.70;99.90
43862;DHT22;29510;52.140;5.034;2023-05-07T17:10:24;16.70;99.90
43862;DHT22;29510;52.140;5.034;2023-05-07T17:20:25;16.80;99.90
43862;DHT22;29510;52.140;5.034;2023-05-07T17:30:26;16.90;99.90
43862;DHT22;29510;52.140;5.034;2023-05-07T17:40:28;16.80;99.90
43862;DHT22;29510;52.140;5.034;2023-05-07T17:50:31;16.80;83.90
43862;DHT22;29510;52.140;5.034;2023-05-07T18:00:32;16.70;83.70
43862;DHT22;29510;52.140;5.034;2023-05-07T18:10:34;16.70;62.00
43862;DHT22;29510;52.140;5.034;2023-05-07T18:20:35;16.60;62.80
43862;DHT22;29510;52.140;5.034;2023-05-07T18:30:36;16.50;75.10
43862;DHT22;29510;52.140;5.034;2023-05-07T18:40:37;16.50;69.80
43862;DHT22;29510;52.140;5.034;2023-05-07T18:50:43;16.50;90.00
43862;DHT22;29510;52.140;5.034;2023-05-07T19:00:46;16.40;96.50
43862;DHT22;29510;52.140;5.034;2023-05-07T19:10:47;16.40;99.90
43862;DHT22;29510;52.140;5.034;2023-05-07T19:20:48;16.30;99.90
43862;DHT22;29510;52.140;5.034;2023-05-07T19:30:50;16.10;99.90
43862;DHT22;29510;52.140;5.034;2023-05-07T19:40:55;16.10;99.90
43862;DHT22;29510;52.140;5.034;2023-05-07T19:50:57;16.00;99.90
43862;DHT22;29510;52.140;5.034;2023-05-07T20:01:00;16.00;99.90
43862;DHT22;29510;52.140;5.034;2023-05-07T20:11:01;15.90;99.90
43862;DHT22;29510;52.140;5.034;2023-05-07T20:21:02;15.80;99.90
43862;DHT22;29510;52.140;5.034;2023-05-07T20:31:04;15.50;99.90
43862;DHT22;29510;52.140;5.034;2023-05-07T20:41:09;15.20;99.90
43862;DHT22;29510;52.140;5.034;2023-05-07T20:51:14;15.20;99.90
43862;DHT22;29510;52.140;5.034;2023-05-07T21:01:15;14.90;99.90
43862;DHT22;29510;52.140;5.034;2023-05-07T21:11:17;14.80;99.90
43862;DHT22;29510;52.140;5.034;2023-05-07T21:21:18;14.70;99.90
43862;DHT22;29510;52.140;5.034;2023-05-07T21:31:20;14.50;99.90
43862;DHT22;29510;52.140;5.034;2023-05-07T21:41:21;14.30;99.90
43862;DHT22;29510;52.140;5.034;2023-05-07T21:51:22;14.30;99.90
43862;DHT22;29510;52.140;5.034;2023-05-07T22:01:23;14.30;99.90
43862;DHT22;29510;52.140;5.034;2023-05-07T22:11:25;14.30;99.90
43862;DHT22;29510;52.140;5.034;2023-05-07T22:21:26;14.20;99.90
43862;DHT22;29510;52.140;5.034;2023-05-07T22:31:27;14.10;99.90
43862;DHT22;29510;52.140;5.034;2023-05-07T22:41:28;14.00;99.90
43862;DHT22;29510;52.140;5.034;2023-05-07T22:51:29;13.90;99.90
43862;DHT22;29510;52.140;5.034;2023-05-07T23:01:30;13.80;99.90
43862;DHT22;29510;52.140;5.034;2023-05-07T23:11:31;13.70;99.90
43862;DHT22;29510;52.140;5.034;2023-05-07T23:21:32;13.70;99.90
43862;DHT22;29510;52.140;5.034;2023-05-07T23:31:33;13.60;99.90
43862;DHT22;29510;52.140;5.034;2023-05-07T23:41:35;13.50;99.90
43862;DHT22;29510;52.140;5.034;2023-05-07T23:51:36;13.60;99.90
